Map

Track Data

SID SEASON NUMBER BASIN SUBBASIN NAME ISO_TIME NATURE LAT LON WMO_WIND WMO_PRES WMO_AGENCY TRACK_TYPE DIST2LAND LANDFALL IFLAG USA_AGENCY USA_ATCF_ID USA_LAT USA_LON USA_RECORD USA_STATUS USA_WIND USA_PRES USA_SSHS USA_R34_NE USA_R34_SE USA_R34_SW USA_R34_NW USA_R50_NE USA_R50_SE USA_R50_SW USA_R50_NW USA_R64_NE USA_R64_SE USA_R64_SW USA_R64_NW USA_POCI USA_ROCI USA_RMW USA_EYE TOKYO_LAT TOKYO_LON TOKYO_GRADE TOKYO_WIND TOKYO_PRES TOKYO_R50_DIR TOKYO_R50_LONG TOKYO_R50_SHORT TOKYO_R30_DIR TOKYO_R30_LONG TOKYO_R30_SHORT TOKYO_LAND CMA_LAT CMA_LON CMA_CAT CMA_WIND CMA_PRES HKO_LAT HKO_LON HKO_CAT HKO_WIND HKO_PRES NEWDELHI_LAT NEWDELHI_LON NEWDELHI_GRADE NEWDELHI_WIND NEWDELHI_PRES NEWDELHI_CI NEWDELHI_DP NEWDELHI_POCI REUNION_LAT REUNION_LON REUNION_TYPE REUNION_WIND REUNION_PRES REUNION_TNUM REUNION_CI REUNION_RMW REUNION_R34_NE REUNION_R34_SE REUNION_R34_SW REUNION_R34_NW REUNION_R50_NE REUNION_R50_SE REUNION_R50_SW REUNION_R50_NW REUNION_R64_NE REUNION_R64_SE REUNION_R64_SW REUNION_R64_NW BOM_LAT BOM_LON BOM_TYPE BOM_WIND BOM_PRES BOM_TNUM BOM_CI BOM_RMW BOM_R34_NE BOM_R34_SE BOM_R34_SW BOM_R34_NW BOM_R50_NE BOM_R50_SE BOM_R50_SW BOM_R50_NW BOM_R64_NE BOM_R64_SE BOM_R64_SW BOM_R64_NW BOM_ROCI BOM_POCI BOM_EYE BOM_POS_METHOD BOM_PRES_METHOD NADI_LAT NADI_LON NADI_CAT NADI_WIND NADI_PRES WELLINGTON_LAT WELLINGTON_LON WELLINGTON_WIND WELLINGTON_PRES DS824_LAT DS824_LON DS824_STAGE DS824_WIND DS824_PRES TD9636_LAT TD9636_LON TD9636_STAGE TD9636_WIND TD9636_PRES TD9635_LAT TD9635_LON TD9635_WIND TD9635_PRES TD9635_ROCI NEUMANN_LAT NEUMANN_LON NEUMANN_CLASS NEUMANN_WIND NEUMANN_PRES MLC_LAT MLC_LON MLC_CLASS MLC_WIND MLC_PRES USA_GUST BOM_GUST BOM_GUST_PER REUNION_GUST REUNION_GUST_PER USA_SEAHGT USA_SEARAD_NE USA_SEARAD_SE USA_SEARAD_SW USA_SEARAD_NW STORM_SPEED STORM_DIR
1956257N17255 1956 89 EP MM NOT_NAMED 1956-09-12 12:00:00 TS 16.9000 -104.600 75 hurdat_epa main 195 193 O________OO___ hurdat_epa EP101956 16.9000 -104.600 HU 75 1 16.9000 -104.600 TC 75 16.9000 -104.600 4 14 300
1956257N17255 1956 89 EP MM NOT_NAMED 1956-09-12 15:00:00 TS 17.2546 -105.255 main 217 207 P________PP___ EP101956 17.2579 -105.255 HU 75 1 17.2579 -105.255 TC 75 17.2412 -105.259 4 14 299
1956257N17255 1956 89 EP MM NOT_NAMED 1956-09-12 18:00:00 TS 17.5950 -105.901 75 hurdat_epa main 213 210 O________OP___ hurdat_epa EP101956 17.6000 -105.900 HU 75 1 17.6000 -105.900 TC 75 17.5751 -105.905 4 14 299
1956257N17255 1956 89 EP MM NOT_NAMED 1956-09-12 21:00:00 TS 17.9112 -106.523 main 230 230 P________PP___ EP101956 17.9149 -106.523 HU 75 1 17.9149 -106.523 TC 75 17.8963 -106.524 4 13 298
1956257N17255 1956 89 EP MM NOT_NAMED 1956-09-13 00:00:00 TS 18.2000 -107.100 75 hurdat_epa main 252 252 O________OO___ hurdat_epa EP101956 18.2000 -107.100 HU 75 1 18.2000 -107.100 TC 75 18.2000 -107.100 4 12 298
1956257N17255 1956 89 EP MM NOT_NAMED 1956-09-13 03:00:00 TS 18.4679 -107.611 main 276 276 P________PP___ EP101956 18.4647 -107.608 HU 75 1 18.4647 -107.608 TC 75 18.4807 -107.626 4 11 298
1956257N17255 1956 89 EP MM NOT_NAMED 1956-09-13 06:00:00 TS 18.7061 -108.106 75 hurdat_epa main 309 309 O________OP___ hurdat_epa EP101956 18.7000 -108.100 HU 75 1 18.7000 -108.100 TC 75 18.7304 -108.128 4 11 296
1956257N17255 1956 89 EP MM NOT_NAMED 1956-09-13 09:00:00 TS 18.9317 -108.624 main 346 346 P________PP___ EP101956 18.9297 -108.620 HU 75 1 18.9297 -108.620 TC 75 18.9400 -108.641 4 11 291
1956257N17255 1956 89 EP MM NOT_NAMED 1956-09-13 12:00:00 TS 19.1000 -109.200 75 hurdat_epa main 394 394 O________OO___ hurdat_epa EP101956 19.1000 -109.200 HU 75 1 19.1000 -109.200 TC 75 19.1000 -109.200 4 12 282
1956257N17255 1956 89 EP MM NOT_NAMED 1956-09-13 15:00:00 TS 19.1772 -109.871 main 413 413 P________PP___ EP101956 19.1725 -109.878 HU 75 1 19.1725 -109.878 TC 75 19.1961 -109.843 4 13 275
1956257N17255 1956 89 EP MM NOT_NAMED 1956-09-13 18:00:00 TS 19.2089 -110.587 75 hurdat_epa main 418 418 O________OP___ hurdat_epa EP101956 19.2000 -110.600 HU 75 1 19.2000 -110.600 TC 75 19.2447 -110.534 4 13 273
1956257N17255 1956 89 EP MM NOT_NAMED 1956-09-13 21:00:00 TS 19.2479 -111.286 main 435 424 P________PP___ EP101956 19.2421 -111.293 HU 75 1 19.2421 -111.293 TC 75 19.2709 -111.258 4 13 274
1956257N17255 1956 89 EP MM NOT_NAMED 1956-09-14 00:00:00 TS 19.3000 -112.000 75 hurdat_epa main 452 452 O________OO___ hurdat_epa EP101956 19.3000 -112.000 HU 75 1 19.3000 -112.000 TC 75 19.3000 -112.000 4 14 276
1956257N17255 1956 89 EP MM NOT_NAMED 1956-09-14 03:00:00 TS 19.3943 -112.748 main 481 481 P________PP___ EP101956 19.3998 -112.742 HU 75 1 19.3998 -112.742 TC 75 19.3722 -112.772 4 14 278
1956257N17255 1956 89 EP MM NOT_NAMED 1956-09-14 06:00:00 TS 19.4901 -113.510 75 hurdat_epa main 525 525 O________OP___ hurdat_epa EP101956 19.5000 -113.500 HU 75 1 19.5000 -113.500 TC 75 19.4506 -113.552 4 15 276
1956257N17255 1956 89 EP MM NOT_NAMED 1956-09-14 09:00:00 TS 19.5517 -114.285 main 578 578 P________PP___ EP101956 19.5575 -114.280 HU 75 1 19.5575 -114.280 TC 75 19.5286 -114.306 4 14 274
1956257N17255 1956 89 EP MM NOT_NAMED 1956-09-14 12:00:00 TS 19.6000 -115.000 75 hurdat_epa main 635 635 O________OO___ hurdat_epa EP101956 19.6000 -115.000 HU 75 1 19.6000 -115.000 TC 75 19.6000 -115.000 4 12 274
1956257N17255 1956 89 EP MM NOT_NAMED 1956-09-14 15:00:00 TS 19.6484 -115.590 main 673 664 P________PP___ EP101956 19.6496 -115.588 HU 75 1 19.6496 -115.588 TC 75 19.6436 -115.598 4 10 275
1956257N17255 1956 89 EP MM NOT_NAMED 1956-09-14 18:00:00 TS 19.6967 -116.107 75 hurdat_epa main 694 694 O________OP___ hurdat_epa EP101956 19.7000 -116.100 HU 75 1 19.7000 -116.100 TC 75 19.6833 -116.133 4 10 275
1956257N17255 1956 89 EP MM NOT_NAMED 1956-09-14 21:00:00 TS 19.7401 -116.611 main 725 723 P________PP___ EP101956 19.7423 -116.608 HU 75 1 19.7423 -116.608 TC 75 19.7314 -116.626 4 9 276
1956257N17255 1956 89 EP MM NOT_NAMED 1956-09-15 00:00:00 TS 19.8000 -117.100 75 hurdat_epa main 751 751 O________OO___ hurdat_epa EP101956 19.8000 -117.100 HU 75 1 19.8000 -117.100 TC 75 19.8000 -117.100 4 9 279
1956257N17255 1956 89 EP MM NOT_NAMED 1956-09-15 03:00:00 TS 19.8836 -117.603 main 779 779 P________PP___ EP101956 19.8849 -117.608 HU 75 1 19.8849 -117.608 TC 75 19.8784 -117.586 4 10 282
1956257N17255 1956 89 EP MM NOT_NAMED 1956-09-15 06:00:00 TS 19.9963 -118.092 75 hurdat_epa main 809 809 O________OP___ hurdat_epa EP101956 20.0000 -118.100 HU 75 1 20.0000 -118.100 TC 75 19.9816 -118.058 4 9 285
1956257N17255 1956 89 EP MM NOT_NAMED 1956-09-15 09:00:00 TS 20.1256 -118.540 main 833 833 P________PP___ EP101956 20.1272 -118.543 HU 75 1 20.1272 -118.543 TC 75 20.1191 -118.527 4 9 290
1956257N17255 1956 89 EP MM NOT_NAMED 1956-09-15 12:00:00 TS 20.3000 -119.000 75 hurdat_epa main 860 860 O________OO___ hurdat_epa EP101956 20.3000 -119.000 HU 75 1 20.3000 -119.000 TC 75 20.3000 -119.000 4 10 293
1956257N17255 1956 89 EP MM NOT_NAMED 1956-09-15 15:00:00 TS 20.5261 -119.544 main 889 889 P________PP___ EP101956 20.5276 -119.550 HU 75 1 20.5276 -119.550 TC 75 20.5199 -119.521 4 11 296
1956257N17255 1956 89 EP MM NOT_NAMED 1956-09-15 18:00:00 TS 20.7966 -120.089 75 hurdat_epa main 919 917 O________OP___ hurdat_epa EP101956 20.8000 -120.100 HU 75 1 20.8000 -120.100 TC 75 20.7829 -120.045 4 11 300
1956257N17255 1956 89 EP MM NOT_NAMED 1956-09-15 21:00:00 TS 21.0838 -120.573 main 926 924 P________PP___ EP101956 21.0849 -120.580 HU 75 1 21.0849 -120.580 TC 75 21.0794 -120.546 4 10 305
1956257N17255 1956 89 EP MM NOT_NAMED 1956-09-16 00:00:00 TS 21.4000 -121.000 75 hurdat_epa main 928 923 O________OO___ hurdat_epa EP101956 21.4000 -121.000 HU 75 1 21.4000 -121.000 TC 75 21.4000 -121.000 4 10 311
1956257N17255 1956 89 EP MM NOT_NAMED 1956-09-16 03:00:00 TS 21.7395 -121.376 main 930 920 P________PP___ EP101956 21.7424 -121.373 HU 75 1 21.7424 -121.373 TC 75 21.7278 -121.388 4 10 317
1956257N17255 1956 89 EP MM NOT_NAMED 1956-09-16 06:00:00 TS 22.0953 -121.705 75 hurdat_epa main 920 912 O________OP___ hurdat_epa EP101956 22.1000 -121.700 HU 75 1 22.1000 -121.700 TC 75 22.0767 -121.726 4 9 320
1956257N17255 1956 89 EP MM NOT_NAMED 1956-09-16 09:00:00 TS 22.4474 -122.017 main 920 912 P________PP___ EP101956 22.4499 -122.015 HU 75 1 22.4499 -122.015 TC 75 22.4374 -122.025 4 9 322
1956257N17255 1956 89 EP MM NOT_NAMED 1956-09-16 12:00:00 TS 22.8000 -122.300 75 hurdat_epa main 915 908 O________OO___ hurdat_epa EP101956 22.8000 -122.300 HU 75 1 22.8000 -122.300 TC 75 22.8000 -122.300 4 9 325
1956257N17255 1956 89 EP MM NOT_NAMED 1956-09-16 15:00:00 TS 23.1513 -122.558 main 912 906 P________PP___ EP101956 23.1499 -122.558 HU 75 1 23.1499 -122.558 TC 75 23.1569 -122.560 4 8 327
1956257N17255 1956 89 EP MM NOT_NAMED 1956-09-16 18:00:00 TS 23.5016 -122.802 75 hurdat_epa main 911 905 O________OP___ hurdat_epa EP101956 23.5000 -122.800 HU 75 1 23.5000 -122.800 TC 75 23.5080 -122.812 4 8 327
1956257N17255 1956 89 EP MM NOT_NAMED 1956-09-16 21:00:00 TS 23.8511 -123.049 main 905 905 P________PP___ EP101956 23.8501 -123.047 HU 75 1 23.8501 -123.047 TC 75 23.8551 -123.057 4 8 327
1956257N17255 1956 89 EP MM NOT_NAMED 1956-09-17 00:00:00 TS 24.2000 -123.300 75 hurdat_epa main 916 O________OO___ hurdat_epa EP101956 24.2000 -123.300 HU 75 1 24.2000 -123.300 TC 75 24.2000 -123.300 4 8 327

About IBTrACS Database

This database is a web-friendly format of International Best Track Archive for Climate Stewardship (IBTrACS), a global best track data archive curated by NOAA dating back to 1842.

Updated: 2021-10-25